sensor_id;sensor_type;location;lat;lon;timestamp;P1;durP1;ratioP1;P2;durP2;ratioP2
67248;SDS011;63247;54.300;18.592;2023-12-20T00:01:32;4.32;;;1.30;;
67248;SDS011;63247;54.300;18.592;2023-12-20T00:03:57;3.03;;;1.27;;
67248;SDS011;63247;54.300;18.592;2023-12-20T00:06:23;3.45;;;1.20;;
67248;SDS011;63247;54.300;18.592;2023-12-20T00:08:48;5.03;;;1.20;;
67248;SDS011;63247;54.300;18.592;2023-12-20T00:11:13;3.20;;;1.10;;
67248;SDS011;63247;54.300;18.592;2023-12-20T00:13:39;3.30;;;1.23;;
67248;SDS011;63247;54.300;18.592;2023-12-20T00:16:04;4.23;;;1.37;;
67248;SDS011;63247;54.300;18.592;2023-12-20T00:18:30;3.73;;;1.30;;
67248;SDS011;63247;54.300;18.592;2023-12-20T00:20:55;3.50;;;1.15;;
67248;SDS011;63247;54.300;18.592;2023-12-20T00:23:20;3.80;;;1.45;;
67248;SDS011;63247;54.300;18.592;2023-12-20T00:25:48;4.47;;;1.53;;
67248;SDS011;63247;54.300;18.592;2023-12-20T00:28:13;3.30;;;1.40;;
67248;SDS011;63247;54.300;18.592;2023-12-20T00:30:38;4.23;;;1.30;;
67248;SDS011;63247;54.300;18.592;2023-12-20T00:33:04;4.80;;;1.67;;
67248;SDS011;63247;54.300;18.592;2023-12-20T00:35:29;3.70;;;1.30;;
67248;SDS011;63247;54.300;18.592;2023-12-20T00:37:54;3.80;;;1.60;;
67248;SDS011;63247;54.300;18.592;2023-12-20T00:40:20;3.40;;;1.50;;
67248;SDS011;63247;54.300;18.592;2023-12-20T00:42:46;3.53;;;1.50;;
67248;SDS011;63247;54.300;18.592;2023-12-20T00:45:11;4.15;;;1.63;;
67248;SDS011;63247;54.300;18.592;2023-12-20T00:47:37;6.28;;;1.70;;
67248;SDS011;63247;54.300;18.592;2023-12-20T00:50:03;4.40;;;1.60;;
67248;SDS011;63247;54.300;18.592;2023-12-20T00:52:28;4.13;;;1.60;;
67248;SDS011;63247;54.300;18.592;2023-12-20T00:54:54;4.63;;;1.60;;
67248;SDS011;63247;54.300;18.592;2023-12-20T00:57:19;4.68;;;1.67;;
67248;SDS011;63247;54.300;18.592;2023-12-20T00:59:44;4.53;;;1.50;;
67248;SDS011;63247;54.300;18.592;2023-12-20T01:02:10;2.80;;;1.13;;
67248;SDS011;63247;54.300;18.592;2023-12-20T01:04:35;4.17;;;1.20;;
67248;SDS011;63247;54.300;18.592;2023-12-20T01:07:00;3.60;;;0.90;;
67248;SDS011;63247;54.300;18.592;2023-12-20T01:09:26;2.90;;;0.80;;
67248;SDS011;63247;54.300;18.592;2023-12-20T01:11:52;3.33;;;0.70;;
67248;SDS011;63247;54.300;18.592;2023-12-20T01:14:18;2.25;;;0.50;;
67248;SDS011;63247;54.300;18.592;2023-12-20T01:16:43;2.97;;;0.77;;
67248;SDS011;63247;54.300;18.592;2023-12-20T01:19:09;1.87;;;0.40;;
67248;SDS011;63247;54.300;18.592;2023-12-20T01:21:34;1.93;;;0.40;;
67248;SDS011;63247;54.300;18.592;2023-12-20T01:24:00;4.43;;;0.57;;
67248;SDS011;63247;54.300;18.592;2023-12-20T01:26:25;3.08;;;0.50;;
67248;SDS011;63247;54.300;18.592;2023-12-20T01:28:50;2.90;;;0.70;;
67248;SDS011;63247;54.300;18.592;2023-12-20T01:31:16;3.30;;;0.50;;
67248;SDS011;63247;54.300;18.592;2023-12-20T01:33:41;2.70;;;0.50;;
67248;SDS011;63247;54.300;18.592;2023-12-20T01:36:06;3.87;;;0.50;;
67248;SDS011;63247;54.300;18.592;2023-12-20T01:38:32;2.77;;;0.50;;
67248;SDS011;63247;54.300;18.592;2023-12-20T01:40:57;3.83;;;0.50;;
67248;SDS011;63247;54.300;18.592;2023-12-20T01:43:23;4.78;;;0.50;;
67248;SDS011;63247;54.300;18.592;2023-12-20T01:45:48;3.27;;;0.50;;
67248;SDS011;63247;54.300;18.592;2023-12-20T01:48:14;3.77;;;0.60;;
67248;SDS011;63247;54.300;18.592;2023-12-20T01:50:40;2.63;;;0.75;;
67248;SDS011;63247;54.300;18.592;2023-12-20T01:53:08;3.72;;;0.60;;
67248;SDS011;63247;54.300;18.592;2023-12-20T01:55:35;4.57;;;0.60;;
67248;SDS011;63247;54.300;18.592;2023-12-20T01:58:04;5.03;;;0.80;;
67248;SDS011;63247;54.300;18.592;2023-12-20T02:00:30;4.38;;;0.68;;
67248;SDS011;63247;54.300;18.592;2023-12-20T02:02:56;1.95;;;0.40;;
67248;SDS011;63247;54.300;18.592;2023-12-20T02:05:23;4.63;;;0.60;;
67248;SDS011;63247;54.300;18.592;2023-12-20T02:07:50;3.50;;;0.55;;
67248;SDS011;63247;54.300;18.592;2023-12-20T02:10:15;7.30;;;0.80;;
67248;SDS011;63247;54.300;18.592;2023-12-20T02:12:41;3.20;;;0.70;;
67248;SDS011;63247;54.300;18.592;2023-12-20T02:15:06;4.47;;;0.80;;
67248;SDS011;63247;54.300;18.592;2023-12-20T02:17:32;5.18;;;0.68;;
67248;SDS011;63247;54.300;18.592;2023-12-20T02:19:58;3.85;;;0.70;;
67248;SDS011;63247;54.300;18.592;2023-12-20T02:22:24;5.73;;;0.70;;
67248;SDS011;63247;54.300;18.592;2023-12-20T02:24:49;5.68;;;0.60;;
67248;SDS011;63247;54.300;18.592;2023-12-20T02:27:14;5.83;;;0.60;;
67248;SDS011;63247;54.300;18.592;2023-12-20T02:29:42;6.97;;;1.20;;
67248;SDS011;63247;54.300;18.592;2023-12-20T02:32:08;5.95;;;0.70;;
67248;SDS011;63247;54.300;18.592;2023-12-20T02:34:33;5.47;;;0.70;;
67248;SDS011;63247;54.300;18.592;2023-12-20T02:36:58;5.67;;;0.80;;
67248;SDS011;63247;54.300;18.592;2023-12-20T02:39:24;8.27;;;0.93;;
67248;SDS011;63247;54.300;18.592;2023-12-20T02:41:49;5.33;;;0.73;;
67248;SDS011;63247;54.300;18.592;2023-12-20T02:44:15;6.70;;;0.98;;
67248;SDS011;63247;54.300;18.592;2023-12-20T02:46:40;6.03;;;0.80;;
67248;SDS011;63247;54.300;18.592;2023-12-20T02:49:06;8.37;;;1.03;;
67248;SDS011;63247;54.300;18.592;2023-12-20T02:51:31;7.50;;;0.87;;
67248;SDS011;63247;54.300;18.592;2023-12-20T02:53:57;9.02;;;0.70;;
67248;SDS011;63247;54.300;18.592;2023-12-20T02:56:22;10.67;;;1.00;;
67248;SDS011;63247;54.300;18.592;2023-12-20T02:58:47;7.23;;;0.90;;
67248;SDS011;63247;54.300;18.592;2023-12-20T03:01:13;7.30;;;0.83;;
67248;SDS011;63247;54.300;18.592;2023-12-20T03:03:38;8.13;;;1.00;;
67248;SDS011;63247;54.300;18.592;2023-12-20T03:06:04;8.43;;;0.70;;
67248;SDS011;63247;54.300;18.592;2023-12-20T03:08:29;8.73;;;0.90;;
67248;SDS011;63247;54.300;18.592;2023-12-20T03:10:54;7.93;;;0.90;;
67248;SDS011;63247;54.300;18.592;2023-12-20T03:13:20;6.23;;;0.90;;
67248;SDS011;63247;54.300;18.592;2023-12-20T03:15:45;7.20;;;1.30;;
67248;SDS011;63247;54.300;18.592;2023-12-20T03:18:11;9.97;;;0.87;;
67248;SDS011;63247;54.300;18.592;2023-12-20T03:20:36;8.95;;;1.10;;
67248;SDS011;63247;54.300;18.592;2023-12-20T03:23:02;6.83;;;1.00;;
67248;SDS011;63247;54.300;18.592;2023-12-20T03:25:28;9.82;;;1.20;;
67248;SDS011;63247;54.300;18.592;2023-12-20T03:27:53;11.40;;;1.60;;
67248;SDS011;63247;54.300;18.592;2023-12-20T03:30:19;10.00;;;1.00;;
67248;SDS011;63247;54.300;18.592;2023-12-20T03:32:44;11.57;;;1.03;;
67248;SDS011;63247;54.300;18.592;2023-12-20T03:35:10;12.02;;;1.08;;
67248;SDS011;63247;54.300;18.592;2023-12-20T03:37:36;7.07;;;1.00;;
67248;SDS011;63247;54.300;18.592;2023-12-20T03:40:02;7.63;;;1.10;;
67248;SDS011;63247;54.300;18.592;2023-12-20T03:42:28;16.27;;;2.05;;
67248;SDS011;63247;54.300;18.592;2023-12-20T03:44:53;10.50;;;1.30;;
67248;SDS011;63247;54.300;18.592;2023-12-20T03:47:18;8.17;;;1.07;;
67248;SDS011;63247;54.300;18.592;2023-12-20T03:49:44;12.57;;;1.90;;
67248;SDS011;63247;54.300;18.592;2023-12-20T03:52:09;12.93;;;1.53;;
67248;SDS011;63247;54.300;18.592;2023-12-20T03:54:35;15.33;;;2.23;;
67248;SDS011;63247;54.300;18.592;2023-12-20T03:57:00;8.48;;;1.38;;
67248;SDS011;63247;54.300;18.592;2023-12-20T03:59:26;10.82;;;1.40;;
67248;SDS011;63247;54.300;18.592;2023-12-20T04:01:51;8.95;;;1.27;;
67248;SDS011;63247;54.300;18.592;2023-12-20T04:04:16;10.13;;;1.43;;
67248;SDS011;63247;54.300;18.592;2023-12-20T04:06:42;8.73;;;1.90;;
67248;SDS011;63247;54.300;18.592;2023-12-20T04:09:08;10.82;;;1.60;;
67248;SDS011;63247;54.300;18.592;2023-12-20T04:11:37;10.93;;;1.40;;
67248;SDS011;63247;54.300;18.592;2023-12-20T04:14:02;11.27;;;1.40;;
67248;SDS011;63247;54.300;18.592;2023-12-20T04:16:27;11.80;;;2.03;;
67248;SDS011;63247;54.300;18.592;2023-12-20T04:18:53;14.53;;;2.10;;
67248;SDS011;63247;54.300;18.592;2023-12-20T04:21:18;16.33;;;2.27;;
67248;SDS011;63247;54.300;18.592;2023-12-20T04:23:43;11.83;;;1.80;;
67248;SDS011;63247;54.300;18.592;2023-12-20T04:26:09;11.17;;;1.97;;
67248;SDS011;63247;54.300;18.592;2023-12-20T04:28:35;8.75;;;2.05;;
67248;SDS011;63247;54.300;18.592;2023-12-20T04:31:00;11.20;;;2.20;;
67248;SDS011;63247;54.300;18.592;2023-12-20T04:33:26;11.97;;;1.70;;
67248;SDS011;63247;54.300;18.592;2023-12-20T04:35:51;11.33;;;1.93;;
67248;SDS011;63247;54.300;18.592;2023-12-20T04:38:16;11.07;;;2.50;;
67248;SDS011;63247;54.300;18.592;2023-12-20T04:40:42;12.07;;;2.33;;
67248;SDS011;63247;54.300;18.592;2023-12-20T04:43:07;9.73;;;2.30;;
67248;SDS011;63247;54.300;18.592;2023-12-20T04:45:33;10.75;;;2.13;;
67248;SDS011;63247;54.300;18.592;2023-12-20T04:47:59;9.63;;;2.00;;
67248;SDS011;63247;54.300;18.592;2023-12-20T04:50:24;9.43;;;2.10;;
67248;SDS011;63247;54.300;18.592;2023-12-20T04:52:50;9.17;;;1.93;;
67248;SDS011;63247;54.300;18.592;2023-12-20T04:55:15;13.50;;;2.22;;
67248;SDS011;63247;54.300;18.592;2023-12-20T04:57:41;15.97;;;2.47;;
67248;SDS011;63247;54.300;18.592;2023-12-20T05:00:06;12.27;;;2.40;;
67248;SDS011;63247;54.300;18.592;2023-12-20T05:02:33;12.38;;;2.38;;
67248;SDS011;63247;54.300;18.592;2023-12-20T05:05:00;9.23;;;2.13;;
67248;SDS011;63247;54.300;18.592;2023-12-20T05:07:25;10.60;;;2.07;;
67248;SDS011;63247;54.300;18.592;2023-12-20T05:09:50;10.87;;;1.80;;
67248;SDS011;63247;54.300;18.592;2023-12-20T05:12:16;13.37;;;1.93;;
67248;SDS011;63247;54.300;18.592;2023-12-20T05:14:41;9.93;;;1.70;;
67248;SDS011;63247;54.300;18.592;2023-12-20T05:17:06;9.43;;;2.00;;
67248;SDS011;63247;54.300;18.592;2023-12-20T05:19:32;13.00;;;2.78;;
67248;SDS011;63247;54.300;18.592;2023-12-20T05:22:00;9.77;;;2.03;;
67248;SDS011;63247;54.300;18.592;2023-12-20T05:24:26;10.50;;;1.80;;
67248;SDS011;63247;54.300;18.592;2023-12-20T05:26:51;10.90;;;2.30;;
67248;SDS011;63247;54.300;18.592;2023-12-20T05:29:17;11.77;;;2.30;;
67248;SDS011;63247;54.300;18.592;2023-12-20T05:31:42;13.35;;;2.40;;
67248;SDS011;63247;54.300;18.592;2023-12-20T05:34:08;13.60;;;2.25;;
67248;SDS011;63247;54.300;18.592;2023-12-20T05:36:33;13.57;;;2.40;;
67248;SDS011;63247;54.300;18.592;2023-12-20T05:38:58;12.97;;;2.30;;
67248;SDS011;63247;54.300;18.592;2023-12-20T05:41:24;12.67;;;2.50;;
67248;SDS011;63247;54.300;18.592;2023-12-20T05:43:49;9.40;;;2.30;;
67248;SDS011;63247;54.300;18.592;2023-12-20T05:46:14;22.20;;;2.70;;
67248;SDS011;63247;54.300;18.592;2023-12-20T05:48:40;14.37;;;2.10;;
67248;SDS011;63247;54.300;18.592;2023-12-20T05:51:05;14.68;;;2.78;;
67248;SDS011;63247;54.300;18.592;2023-12-20T05:53:31;9.67;;;1.97;;
67248;SDS011;63247;54.300;18.592;2023-12-20T05:55:56;16.70;;;2.40;;
67248;SDS011;63247;54.300;18.592;2023-12-20T05:58:21;9.17;;;2.70;;
67248;SDS011;63247;54.300;18.592;2023-12-20T06:00:47;13.90;;;2.80;;
67248;SDS011;63247;54.300;18.592;2023-12-20T06:03:13;15.93;;;2.55;;
67248;SDS011;63247;54.300;18.592;2023-12-20T06:05:39;16.33;;;3.03;;
67248;SDS011;63247;54.300;18.592;2023-12-20T06:08:04;14.47;;;2.60;;
67248;SDS011;63247;54.300;18.592;2023-12-20T06:10:30;12.23;;;2.38;;
67248;SDS011;63247;54.300;18.592;2023-12-20T06:12:55;12.60;;;2.30;;
67248;SDS011;63247;54.300;18.592;2023-12-20T06:15:21;11.20;;;2.35;;
67248;SDS011;63247;54.300;18.592;2023-12-20T06:17:47;13.68;;;3.30;;
67248;SDS011;63247;54.300;18.592;2023-12-20T06:20:12;14.00;;;2.50;;
67248;SDS011;63247;54.300;18.592;2023-12-20T06:22:38;10.87;;;2.47;;
67248;SDS011;63247;54.300;18.592;2023-12-20T06:25:04;11.52;;;2.40;;
67248;SDS011;63247;54.300;18.592;2023-12-20T06:27:30;12.27;;;2.30;;
67248;SDS011;63247;54.300;18.592;2023-12-20T06:29:57;10.07;;;2.60;;
67248;SDS011;63247;54.300;18.592;2023-12-20T06:32:23;12.35;;;3.00;;
67248;SDS011;63247;54.300;18.592;2023-12-20T06:34:49;11.77;;;2.83;;
67248;SDS011;63247;54.300;18.592;2023-12-20T06:37:14;16.40;;;3.57;;
67248;SDS011;63247;54.300;18.592;2023-12-20T06:39:40;14.27;;;2.60;;
67248;SDS011;63247;54.300;18.592;2023-12-20T06:42:05;13.27;;;3.07;;
67248;SDS011;63247;54.300;18.592;2023-12-20T06:44:31;13.77;;;2.65;;
67248;SDS011;63247;54.300;18.592;2023-12-20T06:46:56;12.17;;;3.30;;
67248;SDS011;63247;54.300;18.592;2023-12-20T06:49:22;15.67;;;3.60;;
67248;SDS011;63247;54.300;18.592;2023-12-20T06:51:47;13.87;;;3.40;;
67248;SDS011;63247;54.300;18.592;2023-12-20T06:54:13;11.10;;;2.60;;
67248;SDS011;63247;54.300;18.592;2023-12-20T06:56:38;9.97;;;2.53;;
67248;SDS011;63247;54.300;18.592;2023-12-20T06:59:03;11.63;;;2.43;;
67248;SDS011;63247;54.300;18.592;2023-12-20T07:01:29;14.83;;;2.57;;
67248;SDS011;63247;54.300;18.592;2023-12-20T07:03:54;11.17;;;2.40;;
67248;SDS011;63247;54.300;18.592;2023-12-20T07:06:20;10.67;;;2.43;;
67248;SDS011;63247;54.300;18.592;2023-12-20T07:08:45;15.75;;;2.60;;
67248;SDS011;63247;54.300;18.592;2023-12-20T07:11:11;11.50;;;2.70;;
67248;SDS011;63247;54.300;18.592;2023-12-20T07:13:36;12.00;;;2.53;;
67248;SDS011;63247;54.300;18.592;2023-12-20T07:16:02;18.80;;;2.60;;
67248;SDS011;63247;54.300;18.592;2023-12-20T07:18:28;9.53;;;2.63;;
67248;SDS011;63247;54.300;18.592;2023-12-20T07:20:54;14.95;;;2.67;;
67248;SDS011;63247;54.300;18.592;2023-12-20T07:23:20;11.53;;;2.73;;
67248;SDS011;63247;54.300;18.592;2023-12-20T07:25:46;12.93;;;2.60;;
67248;SDS011;63247;54.300;18.592;2023-12-20T07:28:12;11.48;;;2.72;;
67248;SDS011;63247;54.300;18.592;2023-12-20T07:30:37;14.82;;;3.35;;
67248;SDS011;63247;54.300;18.592;2023-12-20T07:33:02;15.03;;;3.50;;
67248;SDS011;63247;54.300;18.592;2023-12-20T07:35:28;21.07;;;3.70;;
67248;SDS011;63247;54.300;18.592;2023-12-20T07:37:53;11.00;;;3.40;;
67248;SDS011;63247;54.300;18.592;2023-12-20T07:40:19;15.70;;;3.40;;
67248;SDS011;63247;54.300;18.592;2023-12-20T07:42:44;8.93;;;2.70;;
67248;SDS011;63247;54.300;18.592;2023-12-20T07:45:09;12.53;;;3.10;;
67248;SDS011;63247;54.300;18.592;2023-12-20T07:47:36;12.65;;;2.97;;
67248;SDS011;63247;54.300;18.592;2023-12-20T07:50:01;11.27;;;3.00;;
67248;SDS011;63247;54.300;18.592;2023-12-20T07:52:27;14.43;;;2.80;;
67248;SDS011;63247;54.300;18.592;2023-12-20T07:54:53;12.73;;;3.37;;
67248;SDS011;63247;54.300;18.592;2023-12-20T07:57:19;15.10;;;2.55;;
67248;SDS011;63247;54.300;18.592;2023-12-20T07:59:44;15.30;;;2.67;;
67248;SDS011;63247;54.300;18.592;2023-12-20T08:02:10;9.77;;;2.40;;
67248;SDS011;63247;54.300;18.592;2023-12-20T08:04:35;9.07;;;2.30;;
67248;SDS011;63247;54.300;18.592;2023-12-20T08:07:01;13.37;;;2.83;;
67248;SDS011;63247;54.300;18.592;2023-12-20T08:09:26;14.70;;;2.50;;
67248;SDS011;63247;54.300;18.592;2023-12-20T08:11:51;10.97;;;2.10;;
67248;SDS011;63247;54.300;18.592;2023-12-20T08:14:17;9.03;;;2.27;;
67248;SDS011;63247;54.300;18.592;2023-12-20T08:16:42;8.80;;;1.90;;
67248;SDS011;63247;54.300;18.592;2023-12-20T08:19:07;10.17;;;2.30;;
67248;SDS011;63247;54.300;18.592;2023-12-20T08:21:33;10.93;;;2.10;;
67248;SDS011;63247;54.300;18.592;2023-12-20T08:23:59;11.07;;;1.88;;
67248;SDS011;63247;54.300;18.592;2023-12-20T08:26:25;7.78;;;1.65;;
67248;SDS011;63247;54.300;18.592;2023-12-20T08:28:51;6.00;;;1.60;;
67248;SDS011;63247;54.300;18.592;2023-12-20T08:31:17;7.45;;;1.90;;
67248;SDS011;63247;54.300;18.592;2023-12-20T08:33:46;9.88;;;1.90;;
67248;SDS011;63247;54.300;18.592;2023-12-20T08:36:13;8.52;;;2.15;;
67248;SDS011;63247;54.300;18.592;2023-12-20T08:38:38;8.40;;;1.85;;
67248;SDS011;63247;54.300;18.592;2023-12-20T08:41:04;7.57;;;1.80;;
67248;SDS011;63247;54.300;18.592;2023-12-20T08:43:35;8.63;;;1.95;;
67248;SDS011;63247;54.300;18.592;2023-12-20T08:46:01;7.93;;;1.88;;
67248;SDS011;63247;54.300;18.592;2023-12-20T08:48:27;7.60;;;2.00;;
67248;SDS011;63247;54.300;18.592;2023-12-20T08:50:53;6.43;;;1.50;;
67248;SDS011;63247;54.300;18.592;2023-12-20T08:53:19;8.47;;;1.70;;
67248;SDS011;63247;54.300;18.592;2023-12-20T08:55:44;6.97;;;1.55;;
67248;SDS011;63247;54.300;18.592;2023-12-20T08:58:10;7.07;;;1.50;;
67248;SDS011;63247;54.300;18.592;2023-12-20T09:00:36;5.97;;;1.40;;
67248;SDS011;63247;54.300;18.592;2023-12-20T09:03:01;7.30;;;1.40;;
67248;SDS011;63247;54.300;18.592;2023-12-20T09:05:27;5.78;;;1.50;;
67248;SDS011;63247;54.300;18.592;2023-12-20T09:07:53;5.57;;;1.00;;
67248;SDS011;63247;54.300;18.592;2023-12-20T09:10:18;6.30;;;1.27;;
67248;SDS011;63247;54.300;18.592;2023-12-20T09:12:47;6.43;;;1.50;;
67248;SDS011;63247;54.300;18.592;2023-12-20T09:15:15;11.07;;;1.57;;
67248;SDS011;63247;54.300;18.592;2023-12-20T09:17:40;7.70;;;1.58;;
67248;SDS011;63247;54.300;18.592;2023-12-20T09:20:06;6.22;;;1.40;;
67248;SDS011;63247;54.300;18.592;2023-12-20T09:22:33;7.60;;;1.70;;
67248;SDS011;63247;54.300;18.592;2023-12-20T09:24:59;8.82;;;1.70;;
67248;SDS011;63247;54.300;18.592;2023-12-20T09:27:24;7.77;;;1.63;;
67248;SDS011;63247;54.300;18.592;2023-12-20T09:29:50;10.25;;;2.03;;
67248;SDS011;63247;54.300;18.592;2023-12-20T09:32:15;6.70;;;1.40;;
67248;SDS011;63247;54.300;18.592;2023-12-20T09:34:41;6.30;;;1.63;;
67248;SDS011;63247;54.300;18.592;2023-12-20T09:37:06;7.80;;;1.70;;
67248;SDS011;63247;54.300;18.592;2023-12-20T09:39:33;12.00;;;1.80;;
67248;SDS011;63247;54.300;18.592;2023-12-20T09:42:02;6.57;;;1.85;;
67248;SDS011;63247;54.300;18.592;2023-12-20T09:44:29;8.77;;;1.93;;
67248;SDS011;63247;54.300;18.592;2023-12-20T09:46:56;6.75;;;1.83;;
67248;SDS011;63247;54.300;18.592;2023-12-20T09:49:22;8.82;;;1.80;;
67248;SDS011;63247;54.300;18.592;2023-12-20T09:51:49;7.05;;;1.60;;
67248;SDS011;63247;54.300;18.592;2023-12-20T09:54:17;8.68;;;1.70;;
67248;SDS011;63247;54.300;18.592;2023-12-20T09:56:43;9.93;;;1.88;;
67248;SDS011;63247;54.300;18.592;2023-12-20T09:59:09;9.35;;;1.98;;
67248;SDS011;63247;54.300;18.592;2023-12-20T10:01:35;10.00;;;2.00;;
67248;SDS011;63247;54.300;18.592;2023-12-20T10:04:01;6.65;;;1.50;;
67248;SDS011;63247;54.300;18.592;2023-12-20T10:06:33;6.13;;;1.70;;
67248;SDS011;63247;54.300;18.592;2023-12-20T10:09:00;6.72;;;1.63;;
67248;SDS011;63247;54.300;18.592;2023-12-20T10:11:25;6.97;;;1.90;;
67248;SDS011;63247;54.300;18.592;2023-12-20T10:13:50;7.27;;;2.00;;
67248;SDS011;63247;54.300;18.592;2023-12-20T10:16:16;9.67;;;1.57;;
67248;SDS011;63247;54.300;18.592;2023-12-20T10:18:41;6.27;;;1.77;;
67248;SDS011;63247;54.300;18.592;2023-12-20T10:21:06;7.30;;;1.70;;
67248;SDS011;63247;54.300;18.592;2023-12-20T10:23:36;8.25;;;1.58;;
67248;SDS011;63247;54.300;18.592;2023-12-20T10:26:02;9.82;;;1.70;;
67248;SDS011;63247;54.300;18.592;2023-12-20T10:28:28;7.47;;;1.80;;
67248;SDS011;63247;54.300;18.592;2023-12-20T10:30:59;7.80;;;1.98;;
67248;SDS011;63247;54.300;18.592;2023-12-20T10:33:28;8.27;;;2.13;;
67248;SDS011;63247;54.300;18.592;2023-12-20T10:35:57;7.88;;;1.95;;
67248;SDS011;63247;54.300;18.592;2023-12-20T10:38:22;8.23;;;2.00;;
67248;SDS011;63247;54.300;18.592;2023-12-20T10:40:48;9.82;;;2.00;;
67248;SDS011;63247;54.300;18.592;2023-12-20T10:43:18;6.50;;;1.70;;
67248;SDS011;63247;54.300;18.592;2023-12-20T10:45:44;8.63;;;2.10;;
67248;SDS011;63247;54.300;18.592;2023-12-20T10:48:10;9.53;;;2.50;;
67248;SDS011;63247;54.300;18.592;2023-12-20T10:50:38;7.20;;;1.98;;
67248;SDS011;63247;54.300;18.592;2023-12-20T10:53:06;10.57;;;2.53;;
67248;SDS011;63247;54.300;18.592;2023-12-20T10:55:32;8.90;;;2.83;;
67248;SDS011;63247;54.300;18.592;2023-12-20T10:58:01;11.27;;;2.72;;
67248;SDS011;63247;54.300;18.592;2023-12-20T11:00:32;11.25;;;2.55;;
67248;SDS011;63247;54.300;18.592;2023-12-20T11:03:05;9.02;;;3.30;;
67248;SDS011;63247;54.300;18.592;2023-12-20T11:05:36;8.48;;;2.83;;
67248;SDS011;63247;54.300;18.592;2023-12-20T11:08:12;8.43;;;3.20;;
67248;SDS011;63247;54.300;18.592;2023-12-20T11:14:03;11.15;;;3.63;;
67248;SDS011;63247;54.300;18.592;2023-12-20T11:16:27;11.20;;;3.40;;
67248;SDS011;63247;54.300;18.592;2023-12-20T11:18:52;14.43;;;3.70;;
67248;SDS011;63247;54.300;18.592;2023-12-20T11:21:17;10.00;;;3.50;;
67248;SDS011;63247;54.300;18.592;2023-12-20T11:23:43;13.77;;;3.97;;
67248;SDS011;63247;54.300;18.592;2023-12-20T11:26:08;10.98;;;3.63;;
67248;SDS011;63247;54.300;18.592;2023-12-20T11:28:34;10.27;;;3.55;;
67248;SDS011;63247;54.300;18.592;2023-12-20T11:31:00;12.83;;;3.80;;
67248;SDS011;63247;54.300;18.592;2023-12-20T11:33:45;9.75;;;3.35;;
67248;SDS011;63247;54.300;18.592;2023-12-20T11:36:14;9.10;;;3.47;;
67248;SDS011;63247;54.300;18.592;2023-12-20T11:39:01;9.90;;;3.20;;
67248;SDS011;63247;54.300;18.592;2023-12-20T11:41:31;7.13;;;3.20;;
67248;SDS011;63247;54.300;18.592;2023-12-20T11:43:57;10.32;;;3.63;;
67248;SDS011;63247;54.300;18.592;2023-12-20T11:46:23;10.83;;;3.90;;
67248;SDS011;63247;54.300;18.592;2023-12-20T11:48:48;10.52;;;3.40;;
67248;SDS011;63247;54.300;18.592;2023-12-20T11:51:14;10.43;;;3.50;;
67248;SDS011;63247;54.300;18.592;2023-12-20T11:53:40;8.80;;;3.50;;
67248;SDS011;63247;54.300;18.592;2023-12-20T11:56:06;13.70;;;3.58;;
67248;SDS011;63247;54.300;18.592;2023-12-20T11:58:32;9.73;;;3.83;;
67248;SDS011;63247;54.300;18.592;2023-12-20T12:00:58;11.13;;;3.50;;
67248;SDS011;63247;54.300;18.592;2023-12-20T12:03:24;9.52;;;3.50;;
67248;SDS011;63247;54.300;18.592;2023-12-20T12:05:49;9.87;;;3.37;;
67248;SDS011;63247;54.300;18.592;2023-12-20T12:08:15;10.47;;;3.47;;
67248;SDS011;63247;54.300;18.592;2023-12-20T12:10:40;10.25;;;3.08;;
67248;SDS011;63247;54.300;18.592;2023-12-20T12:13:06;7.30;;;3.17;;
67248;SDS011;63247;54.300;18.592;2023-12-20T12:15:32;9.07;;;2.85;;
67248;SDS011;63247;54.300;18.592;2023-12-20T12:17:57;8.03;;;2.90;;
67248;SDS011;63247;54.300;18.592;2023-12-20T12:20:24;9.32;;;3.20;;
67248;SDS011;63247;54.300;18.592;2023-12-20T12:23:05;11.07;;;2.73;;
67248;SDS011;63247;54.300;18.592;2023-12-20T12:25:32;8.23;;;2.78;;
67248;SDS011;63247;54.300;18.592;2023-12-20T12:28:00;8.23;;;2.90;;
67248;SDS011;63247;54.300;18.592;2023-12-20T12:30:26;6.28;;;2.40;;
67248;SDS011;63247;54.300;18.592;2023-12-20T12:32:52;8.90;;;2.40;;
67248;SDS011;63247;54.300;18.592;2023-12-20T12:35:19;9.27;;;2.63;;
67248;SDS011;63247;54.300;18.592;2023-12-20T12:37:44;6.30;;;2.30;;
67248;SDS011;63247;54.300;18.592;2023-12-20T12:40:10;7.93;;;3.30;;
67248;SDS011;63247;54.300;18.592;2023-12-20T12:42:40;4.60;;;2.10;;
67248;SDS011;63247;54.300;18.592;2023-12-20T12:45:07;7.65;;;2.13;;
67248;SDS011;63247;54.300;18.592;2023-12-20T12:47:33;5.43;;;2.20;;
67248;SDS011;63247;54.300;18.592;2023-12-20T12:49:59;5.35;;;2.10;;
67248;SDS011;63247;54.300;18.592;2023-12-20T12:52:24;4.97;;;2.13;;
67248;SDS011;63247;54.300;18.592;2023-12-20T12:54:49;5.78;;;2.20;;
67248;SDS011;63247;54.300;18.592;2023-12-20T12:57:15;6.10;;;1.90;;
67248;SDS011;63247;54.300;18.592;2023-12-20T12:59:41;4.10;;;1.90;;
67248;SDS011;63247;54.300;18.592;2023-12-20T13:02:08;5.82;;;1.90;;
67248;SDS011;63247;54.300;18.592;2023-12-20T13:04:34;5.80;;;1.80;;
67248;SDS011;63247;54.300;18.592;2023-12-20T13:06:59;3.67;;;1.57;;
67248;SDS011;63247;54.300;18.592;2023-12-20T13:09:25;5.70;;;2.22;;
67248;SDS011;63247;54.300;18.592;2023-12-20T13:11:50;4.53;;;1.50;;
67248;SDS011;63247;54.300;18.592;2023-12-20T13:14:16;4.07;;;1.70;;
67248;SDS011;63247;54.300;18.592;2023-12-20T13:16:41;3.50;;;1.50;;
67248;SDS011;63247;54.300;18.592;2023-12-20T13:19:07;3.63;;;1.23;;
67248;SDS011;63247;54.300;18.592;2023-12-20T13:21:33;3.30;;;1.38;;
67248;SDS011;63247;54.300;18.592;2023-12-20T13:23:58;3.90;;;1.40;;
67248;SDS011;63247;54.300;18.592;2023-12-20T13:26:24;5.50;;;1.53;;
67248;SDS011;63247;54.300;18.592;2023-12-20T13:28:49;5.17;;;1.80;;
67248;SDS011;63247;54.300;18.592;2023-12-20T13:31:15;5.47;;;1.80;;
67248;SDS011;63247;54.300;18.592;2023-12-20T13:33:40;4.45;;;1.80;;
67248;SDS011;63247;54.300;18.592;2023-12-20T13:36:06;6.13;;;1.88;;
67248;SDS011;63247;54.300;18.592;2023-12-20T13:38:31;5.40;;;1.90;;
67248;SDS011;63247;54.300;18.592;2023-12-20T13:40:56;4.30;;;1.80;;
67248;SDS011;63247;54.300;18.592;2023-12-20T13:43:23;3.80;;;1.23;;
67248;SDS011;63247;54.300;18.592;2023-12-20T13:45:49;3.50;;;1.40;;
67248;SDS011;63247;54.300;18.592;2023-12-20T13:48:15;4.27;;;1.20;;
67248;SDS011;63247;54.300;18.592;2023-12-20T13:50:41;4.45;;;1.60;;
67248;SDS011;63247;54.300;18.592;2023-12-20T13:53:06;4.30;;;1.60;;
67248;SDS011;63247;54.300;18.592;2023-12-20T13:55:32;4.10;;;1.50;;
67248;SDS011;63247;54.300;18.592;2023-12-20T13:57:57;4.43;;;1.60;;
67248;SDS011;63247;54.300;18.592;2023-12-20T14:00:22;4.50;;;1.50;;
67248;SDS011;63247;54.300;18.592;2023-12-20T14:02:48;4.53;;;1.40;;
67248;SDS011;63247;54.300;18.592;2023-12-20T14:05:14;5.07;;;1.38;;
67248;SDS011;63247;54.300;18.592;2023-12-20T14:07:42;5.32;;;1.67;;
67248;SDS011;63247;54.300;18.592;2023-12-20T14:10:09;4.30;;;1.50;;
67248;SDS011;63247;54.300;18.592;2023-12-20T14:12:36;3.42;;;1.20;;
67248;SDS011;63247;54.300;18.592;2023-12-20T14:15:03;4.13;;;1.40;;
67248;SDS011;63247;54.300;18.592;2023-12-20T14:17:29;7.40;;;1.70;;
67248;SDS011;63247;54.300;18.592;2023-12-20T14:19:54;4.82;;;1.58;;
67248;SDS011;63247;54.300;18.592;2023-12-20T14:22:20;3.30;;;1.30;;
67248;SDS011;63247;54.300;18.592;2023-12-20T14:24:45;5.33;;;2.20;;
67248;SDS011;63247;54.300;18.592;2023-12-20T14:27:11;5.37;;;1.67;;